TimeCDT,TemperatureF,Dew PointF,Humidity,Sea Level PressureIn,VisibilityMPH,Wind Direction,Wind SpeedMPH,Gust SpeedMPH,PrecipitationIn,Events,Conditions,WindDirDegrees,DateUTC
12:31 AM,50.0,44.6,82,30.11,10.0,East,6.9,-,N/A,,Overcast,80,2013-04-17 05:31:00
12:54 AM,50.0,45.0,83,30.13,10.0,ENE,5.8,-,N/A,,Overcast,60,2013-04-17 05:54:00
1:54 AM,50.0,45.0,83,30.11,10.0,ENE,6.9,-,N/A,,Overcast,60,2013-04-17 06:54:00
2:54 AM,50.0,46.0,86,30.11,6.0,East,5.8,-,N/A,,Overcast,80,2013-04-17 07:54:00
3:54 AM,50.0,46.9,89,30.10,6.0,East,3.5,-,N/A,,Overcast,80,2013-04-17 08:54:00
4:54 AM,50.0,46.9,89,30.08,4.0,East,6.9,-,N/A,,Overcast,90,2013-04-17 09:54:00
5:01 AM,50.0,46.4,87,30.07,4.0,East,6.9,-,N/A,,Overcast,90,2013-04-17 10:01:00
5:54 AM,50.0,48.0,93,30.06,3.0,East,5.8,-,N/A,,Overcast,100,2013-04-17 10:54:00
6:54 AM,50.0,48.0,93,30.06,2.5,East,6.9,-,N/A,,Overcast,80,2013-04-17 11:54:00
7:54 AM,51.1,48.9,92,30.06,2.5,East,6.9,-,N/A,,Overcast,100,2013-04-17 12:54:00
8:00 AM,51.8,48.2,88,30.06,2.5,East,5.8,-,N/A,,Overcast,90,2013-04-17 13:00:00
8:41 AM,51.8,50.0,94,30.05,1.8,East,8.1,-,N/A,,Overcast,90,2013-04-17 13:41:00
8:54 AM,51.8,50.0,94,30.04,1.8,East,8.1,-,N/A,,Overcast,100,2013-04-17 13:54:00
9:54 AM,55.0,52.0,89,30.02,2.0,SE,8.1,-,N/A,,Overcast,140,2013-04-17 14:54:00
10:07 AM,55.4,53.6,94,30.01,2.0,SSE,9.2,-,N/A,,Overcast,150,2013-04-17 15:07:00
10:54 AM,61.0,55.9,83,29.99,4.0,SE,9.2,17.3,N/A,,Haze,140,2013-04-17 15:54:00
11:28 AM,64.4,59.0,83,29.97,6.0,SSE,8.1,-,N/A,,Haze,150,2013-04-17 16:28:00
11:45 AM,66.2,60.8,83,29.97,7.0,South,5.8,-,N/A,,Mostly Cloudy,170,2013-04-17 16:45:00
11:54 AM,68.0,61.0,78,29.96,8.0,South,9.2,16.1,N/A,,Mostly Cloudy,180,2013-04-17 16:54:00
12:54 PM,75.0,64.9,71,29.91,10.0,SSW,8.1,-,N/A,,Partly Cloudy,200,2013-04-17 17:54:00
1:54 PM,77.0,64.0,64,29.88,10.0,SSE,13.8,25.3,N/A,,Clear,160,2013-04-17 18:54:00
2:54 PM,82.0,64.0,54,29.83,10.0,South,12.7,21.9,N/A,,Mostly Cloudy,180,2013-04-17 19:54:00
3:54 PM,84.9,64.0,49,29.78,10.0,South,16.1,25.3,N/A,,Scattered Clouds,170,2013-04-17 20:54:00
4:54 PM,84.9,63.0,48,29.75,10.0,SSE,10.4,20.7,N/A,,Scattered Clouds,150,2013-04-17 21:54:00
6:54 PM,82.0,60.1,47,29.70,10.0,Variable,6.9,-,N/A,,Mostly Cloudy,0,2013-04-17 23:54:00
7:54 PM,81.0,59.0,47,29.69,10.0,South,8.1,-,N/A,,Clear,170,2013-04-18 00:54:00
8:54 PM,80.1,61.0,52,29.69,10.0,South,10.4,-,N/A,,Mostly Cloudy,170,2013-04-18 01:54:00
9:54 PM,79.0,62.1,56,29.68,10.0,South,10.4,20.7,N/A,,Overcast,180,2013-04-18 02:54:00
10:54 PM,78.1,62.1,58,29.66,10.0,South,15.0,24.2,N/A,,Overcast,190,2013-04-18 03:54:00
11:54 PM,77.0,63.0,62,29.64,10.0,South,16.1,24.2,N/A,,Clear,190,2013-04-18 04:54:00